Alaska Titan — WDE4789 — position and weather

sailwx.info

Track history (hours):
 
Tides and Currents Weather Stations Pressure Air Temp Water Temp Dewpoint Dewpoint Depression Visibility Wind Speed Wind Dir Waves Ship Positions

Alaska Titan

Owner: WESTERN TOWBOAT CO, Seattle, WA. More information available from US FCC via Universal Licensing System and Coast Guard Vessel Documentation Center.

Last reported at 2014-Sep-29 06:00 UTC. Time now 2014-Oct-02 06:33 UTC.
Position N 58°06' W 136°48'.

Length 40 m; draft 6 m.

Type: Tow > 200 m length. MMSI: 367357000.

Wind from 090 at 10 knots

Barometer 1000.8 mb
Air temperature 12.8 ° C
Visibility: greater than 5.4 NM

Date/timePositionNaut miles runAvg speedWind from/ knotsBaromVisibWave heightAir tempDewpointWater temp
2014-Sep-29 06:00N 58°06' W 136°48'30 8.8 090 / 101000.8 5.4 12.8
2014-Sep-29 02:34N 58°17' W 135°54'  
2014-Sep-26 14:23N 51°14' W 127°52'8 9.6
2014-Sep-26 13:33N 51°07' W 127°47'10 9.8
2014-Sep-26 12:33N 50°60' W 127°36'1010.0
2014-Sep-26 11:33N 50°54' W 127°23'10 9.8
2014-Sep-26 10:33N 50°47' W 127°11'13 8.9
2014-Sep-26 09:05N 50°41' W 126°53'6 8.8
2014-Sep-26 08:22N 50°37' W 126°45'9 8.1
2014-Sep-26 07:12N 50°30' W 126°35'62 8.0
2014-Sep-25 23:27N 49°59' W 125°11'5 5.0
2014-Sep-25 22:29N 49°55' W 125°05'6 6.3
2014-Sep-25 21:31N 49°51' W 124°58'6 5.7
2014-Sep-25 20:29N 49°48' W 124°51'6 6.1
2014-Sep-25 19:27N 49°44' W 124°43'6 6.8
2014-Sep-25 18:34N 49°40' W 124°36'10 9.7
2014-Sep-25 17:33N 49°35' W 124°24'9 9.4
2014-Sep-25 16:34N 49°30' W 124°11'10 9.8
2014-Sep-25 15:34N 49°25' W 123°58'9 9.4
2014-Sep-25 14:33N 49°20' W 123°46'9 9.5
2014-Sep-25 13:34N 49°13' W 123°36'1010.0
2014-Sep-25 12:33N 49°06' W 123°25'10 9.9
2014-Sep-25 11:34N 48°60' W 123°13'10 9.8
2014-Sep-25 10:33N 48°53' W 123°02'10 9.7
2014-Sep-25 09:33N 48°47' W 122°50'9 9.0
2014-Sep-25 08:33N 48°40' W 122°43'8 8.1
2014-Sep-25 07:33N 48°32' W 122°44'7 7.4
2014-Sep-25 06:34N 48°24' W 122°44'18 8.7
2014-Sep-25 04:31N 48°07' W 122°39'812.0
2014-Sep-25 03:50N 47°59' W 122°35'311.8
2014-Sep-25 03:34N 47°57' W 122°32'210.6
2014-Sep-25 03:25N 47°56' W 122°30'910.3
2014-Sep-25 02:34N 47°48' W 122°26'110.4
2014-Sep-25 02:30N 47°47' W 122°26'9 9.7
2014-Sep-25 01:33N 47°38' W 122°26'1 9.1
2014-Sep-25 01:29N 47°37' W 122°25'3 3.5
2014-Sep-25 00:33N 47°35' W 122°21'0 0.1
2014-Sep-25 00:29N 47°35' W 122°21'0 0.0
2014-Sep-24 23:33N 47°35' W 122°21'0 0.0
2014-Sep-24 23:29N 47°35' W 122°21'5 5.4
2014-Sep-24 22:33N 47°39' W 122°26'110.0
2014-Sep-24 22:29N 47°40' W 122°27'3 3.4
2014-Sep-24 21:33N 47°39' W 122°22'0 0.0
2014-Sep-24 21:33N 47°39' W 122°22'0 0.0
2014-Sep-24 20:34N 47°39' W 122°22'0 0.0
2014-Sep-24 20:33N 47°39' W 122°22'0 0.0
2014-Sep-24 19:34N 47°39' W 122°22'0 0.0
2014-Sep-24 19:33N 47°39' W 122°22'  
2014-Sep-20 23:28N 47°39' W 122°22'3 3.6
2014-Sep-20 22:34N 47°39' W 122°27'6 5.6
2014-Sep-20 21:34N 47°35' W 122°21'3 3.4
2014-Sep-20 20:33N 47°38' W 122°25'9 8.7
2014-Sep-20 19:34N 47°46' W 122°27'1010.0
2014-Sep-20 18:33N 47°56' W 122°31'27 8.6
2014-Sep-20 15:28N 48°20' W 122°46'1010.5
2014-Sep-20 14:33N 48°30' W 122°44'1110.8
2014-Sep-20 13:34N 48°41' W 122°43'9 9.3
2014-Sep-20 12:33N 48°47' W 122°53'9 9.0
2014-Sep-20 11:34N 48°52' W 123°05'8 8.1
2014-Sep-20 10:34N 48°58' W 123°14'9 8.9
2014-Sep-20 09:34N 49°03' W 123°24'8 8.0
2014-Sep-20 08:34N 49°09' W 123°32'8 8.0
2014-Sep-20 07:31N 49°16' W 123°40'8 8.2
2014-Sep-20 06:32N 49°21' W 123°50'8 8.2
2014-Sep-20 05:34N 49°25' W 123°60'8 8.2
2014-Sep-20 04:34N 49°30' W 124°11'8 8.4
2014-Sep-20 03:33N 49°34' W 124°22'9 8.7
2014-Sep-20 02:33N 49°39' W 124°33'9 8.7
2014-Sep-20 01:33N 49°44' W 124°44'10 9.5
2014-Sep-20 00:29N 49°50' W 124°56'9 9.5
2014-Sep-19 23:33N 49°56' W 125°07'53 8.8
2014-Sep-19 17:31N 50°29' W 126°12'8 6.4
2014-Sep-19 16:20N 50°30' W 126°24'4 5.3
2014-Sep-19 15:34N 50°30' W 126°31'5 4.6
2014-Sep-19 14:31N 50°31' W 126°38'6 6.8
2014-Sep-19 13:33N 50°36' W 126°44'7 6.9
2014-Sep-19 12:31N 50°41' W 126°53'7 7.3
2014-Sep-19 11:32N 50°43' W 127°04'7 6.7
2014-Sep-19 10:31N 50°47' W 127°12'8 8.4
2014-Sep-19 09:34N 50°53' W 127°21'9 8.7
2014-Sep-19 08:34N 50°58' W 127°32'9 8.7
2014-Sep-19 07:34N 51°04' W 127°42'  
Track history (hours):
 
Tides and Currents Weather Stations Pressure Air Temp Water Temp Dewpoint Dewpoint Depression Visibility Wind Speed Wind Dir Waves Ship Positions

Alaska Titan

Owner: WESTERN TOWBOAT CO, Seattle, WA. More information available from US FCC via Universal Licensing System and Coast Guard Vessel Documentation Center.

Last reported at 2014-Sep-29 06:00 UTC. Time now 2014-Oct-02 06:33 UTC.
Position N 58°06' W 136°48'.

Length 40 m; draft 6 m.

Type: Tow > 200 m length. MMSI: 367357000.

Wind from 090 at 10 knots

Barometer 1000.8 mb
Air temperature 12.8 ° C
Visibility: greater than 5.4 NM

Date/timePositionNaut miles runAvg speedWind from/ knotsBaromVisibWave heightAir tempDewpointWater temp
2014-Sep-29 06:00N 58°06' W 136°48'30 8.8 090 / 101000.8 5.4 12.8
2014-Sep-29 02:34N 58°17' W 135°54'  
2014-Sep-26 14:23N 51°14' W 127°52'8 9.6
2014-Sep-26 13:33N 51°07' W 127°47'10 9.8
2014-Sep-26 12:33N 50°60' W 127°36'1010.0
2014-Sep-26 11:33N 50°54' W 127°23'10 9.8
2014-Sep-26 10:33N 50°47' W 127°11'13 8.9
2014-Sep-26 09:05N 50°41' W 126°53'6 8.8
2014-Sep-26 08:22N 50°37' W 126°45'9 8.1
2014-Sep-26 07:12N 50°30' W 126°35'62 8.0
2014-Sep-25 23:27N 49°59' W 125°11'5 5.0
2014-Sep-25 22:29N 49°55' W 125°05'6 6.3
2014-Sep-25 21:31N 49°51' W 124°58'6 5.7
2014-Sep-25 20:29N 49°48' W 124°51'6 6.1
2014-Sep-25 19:27N 49°44' W 124°43'6 6.8
2014-Sep-25 18:34N 49°40' W 124°36'10 9.7
2014-Sep-25 17:33N 49°35' W 124°24'9 9.4
2014-Sep-25 16:34N 49°30' W 124°11'10 9.8
2014-Sep-25 15:34N 49°25' W 123°58'9 9.4
2014-Sep-25 14:33N 49°20' W 123°46'9 9.5
2014-Sep-25 13:34N 49°13' W 123°36'1010.0
2014-Sep-25 12:33N 49°06' W 123°25'10 9.9
2014-Sep-25 11:34N 48°60' W 123°13'10 9.8
2014-Sep-25 10:33N 48°53' W 123°02'10 9.7
2014-Sep-25 09:33N 48°47' W 122°50'9 9.0
2014-Sep-25 08:33N 48°40' W 122°43'8 8.1
2014-Sep-25 07:33N 48°32' W 122°44'7 7.4
2014-Sep-25 06:34N 48°24' W 122°44'18 8.7
2014-Sep-25 04:31N 48°07' W 122°39'812.0
2014-Sep-25 03:50N 47°59' W 122°35'311.8
2014-Sep-25 03:34N 47°57' W 122°32'210.6
2014-Sep-25 03:25N 47°56' W 122°30'910.3
2014-Sep-25 02:34N 47°48' W 122°26'110.4
2014-Sep-25 02:30N 47°47' W 122°26'9 9.7
2014-Sep-25 01:33N 47°38' W 122°26'1 9.1
2014-Sep-25 01:29N 47°37' W 122°25'3 3.5
2014-Sep-25 00:33N 47°35' W 122°21'0 0.1
2014-Sep-25 00:29N 47°35' W 122°21'0 0.0
2014-Sep-24 23:33N 47°35' W 122°21'0 0.0
2014-Sep-24 23:29N 47°35' W 122°21'5 5.4
2014-Sep-24 22:33N 47°39' W 122°26'110.0
2014-Sep-24 22:29N 47°40' W 122°27'3 3.4
2014-Sep-24 21:33N 47°39' W 122°22'0 0.0
2014-Sep-24 21:33N 47°39' W 122°22'0 0.0
2014-Sep-24 20:34N 47°39' W 122°22'0 0.0
2014-Sep-24 20:33N 47°39' W 122°22'0 0.0
2014-Sep-24 19:34N 47°39' W 122°22'0 0.0
2014-Sep-24 19:33N 47°39' W 122°22'  
2014-Sep-20 23:28N 47°39' W 122°22'3 3.6
2014-Sep-20 22:34N 47°39' W 122°27'6 5.6
2014-Sep-20 21:34N 47°35' W 122°21'3 3.4
2014-Sep-20 20:33N 47°38' W 122°25'9 8.7
2014-Sep-20 19:34N 47°46' W 122°27'1010.0
2014-Sep-20 18:33N 47°56' W 122°31'27 8.6
2014-Sep-20 15:28N 48°20' W 122°46'1010.5
2014-Sep-20 14:33N 48°30' W 122°44'1110.8
2014-Sep-20 13:34N 48°41' W 122°43'9 9.3
2014-Sep-20 12:33N 48°47' W 122°53'9 9.0
2014-Sep-20 11:34N 48°52' W 123°05'8 8.1
2014-Sep-20 10:34N 48°58' W 123°14'9 8.9
2014-Sep-20 09:34N 49°03' W 123°24'8 8.0
2014-Sep-20 08:34N 49°09' W 123°32'8 8.0
2014-Sep-20 07:31N 49°16' W 123°40'8 8.2
2014-Sep-20 06:32N 49°21' W 123°50'8 8.2
2014-Sep-20 05:34N 49°25' W 123°60'8 8.2
2014-Sep-20 04:34N 49°30' W 124°11'8 8.4
2014-Sep-20 03:33N 49°34' W 124°22'9 8.7
2014-Sep-20 02:33N 49°39' W 124°33'9 8.7
2014-Sep-20 01:33N 49°44' W 124°44'10 9.5
2014-Sep-20 00:29N 49°50' W 124°56'9 9.5
2014-Sep-19 23:33N 49°56' W 125°07'53 8.8
2014-Sep-19 17:31N 50°29' W 126°12'8 6.4
2014-Sep-19 16:20N 50°30' W 126°24'4 5.3
2014-Sep-19 15:34N 50°30' W 126°31'5 4.6
2014-Sep-19 14:31N 50°31' W 126°38'6 6.8
2014-Sep-19 13:33N 50°36' W 126°44'7 6.9
2014-Sep-19 12:31N 50°41' W 126°53'7 7.3
2014-Sep-19 11:32N 50°43' W 127°04'7 6.7
2014-Sep-19 10:31N 50°47' W 127°12'8 8.4
2014-Sep-19 09:34N 50°53' W 127°21'9 8.7
2014-Sep-19 08:34N 50°58' W 127°32'9 8.7
2014-Sep-19 07:34N 51°04' W 127°42'  

Dump ship's entire track history